Aviation Digital Data Service (ADDS)

Output produced by METARs form (0345 UTC 23 November 2017)
found at http://www.aviationweather.gov/adds/metars/
 
MBGT 221600Z 2218/2318 15008KT 9999 SCT015CB BKN040 
     BECMG 2300/2302 09010KT
       
MBPV 221600Z 2218/2318 15008KT 9999 SCT015CB BKN040 
     BECMG 2300/2302 09010KT